sensor_id;sensor_type;location;lat;lon;timestamp;pressure;altitude;pressure_sealevel;temperature;humidity
79131;BME280;70394;45.194;9.142;2023-06-14T00:02:09;100136.22;;;21.56;68.55
79131;BME280;70394;45.194;9.142;2023-06-14T00:04:34;100122.38;;;21.51;68.36
79131;BME280;70394;45.194;9.142;2023-06-14T00:07:00;100112.66;;;21.50;68.33
79131;BME280;70394;45.194;9.142;2023-06-14T00:09:26;100137.78;;;21.59;68.07
79131;BME280;70394;45.194;9.142;2023-06-14T00:11:52;100134.53;;;21.55;68.28
79131;BME280;70394;45.194;9.142;2023-06-14T00:14:17;100132.41;;;21.49;68.30
79131;BME280;70394;45.194;9.142;2023-06-14T00:16:43;100133.13;;;21.51;68.64
79131;BME280;70394;45.194;9.142;2023-06-14T00:19:09;100131.41;;;21.50;68.83
79131;BME280;70394;45.194;9.142;2023-06-14T00:21:35;100122.19;;;21.43;68.61
79131;BME280;70394;45.194;9.142;2023-06-14T00:24:01;100118.25;;;21.47;68.56
79131;BME280;70394;45.194;9.142;2023-06-14T00:26:27;100126.75;;;21.52;68.58
79131;BME280;70394;45.194;9.142;2023-06-14T00:28:55;100112.78;;;21.49;68.46
79131;BME280;70394;45.194;9.142;2023-06-14T00:31:22;100125.78;;;21.53;68.49
79131;BME280;70394;45.194;9.142;2023-06-14T00:33:48;100118.84;;;21.51;68.71
79131;BME280;70394;45.194;9.142;2023-06-14T00:36:14;100113.63;;;21.49;68.60
79131;BME280;70394;45.194;9.142;2023-06-14T00:38:39;100114.63;;;21.48;68.62
79131;BME280;70394;45.194;9.142;2023-06-14T00:41:05;100103.31;;;21.44;68.53
79131;BME280;70394;45.194;9.142;2023-06-14T00:43:30;100102.00;;;21.39;68.89
79131;BME280;70394;45.194;9.142;2023-06-14T00:45:56;100101.47;;;21.45;69.02
79131;BME280;70394;45.194;9.142;2023-06-14T00:48:22;100114.47;;;21.50;68.83
79131;BME280;70394;45.194;9.142;2023-06-14T00:50:49;100110.22;;;21.47;68.78
79131;BME280;70394;45.194;9.142;2023-06-14T00:53:16;100103.88;;;21.48;68.47
79131;BME280;70394;45.194;9.142;2023-06-14T00:55:42;100115.31;;;21.50;68.66
79131;BME280;70394;45.194;9.142;2023-06-14T00:58:09;100114.47;;;21.50;68.55
79131;BME280;70394;45.194;9.142;2023-06-14T01:00:34;100098.63;;;21.37;68.65
79131;BME280;70394;45.194;9.142;2023-06-14T01:03:00;100116.03;;;21.52;68.77
79131;BME280;70394;45.194;9.142;2023-06-14T01:05:26;100110.78;;;21.51;68.82
79131;BME280;70394;45.194;9.142;2023-06-14T01:15:45;100108.97;;;21.51;69.07
79131;BME280;70394;45.194;9.142;2023-06-14T01:18:11;100109.53;;;21.55;69.02
79131;BME280;70394;45.194;9.142;2023-06-14T01:20:42;100102.47;;;21.54;68.92
79131;BME280;70394;45.194;9.142;2023-06-14T01:23:12;100096.56;;;21.50;69.39
79131;BME280;70394;45.194;9.142;2023-06-14T01:25:38;100097.25;;;21.52;69.35
79131;BME280;70394;45.194;9.142;2023-06-14T01:28:05;100099.22;;;21.50;69.31
79131;BME280;70394;45.194;9.142;2023-06-14T01:30:37;100101.34;;;21.56;69.15
79131;BME280;70394;45.194;9.142;2023-06-14T01:33:03;100100.38;;;21.57;69.26
79131;BME280;70394;45.194;9.142;2023-06-14T01:35:29;100109.97;;;21.60;69.06
79131;BME280;70394;45.194;9.142;2023-06-14T01:37:55;100107.44;;;21.58;69.04
79131;BME280;70394;45.194;9.142;2023-06-14T01:40:21;100093.88;;;21.60;69.24
79131;BME280;70394;45.194;9.142;2023-06-14T01:42:49;100087.94;;;21.56;69.16
79131;BME280;70394;45.194;9.142;2023-06-14T01:45:15;100090.50;;;21.58;69.54
79131;BME280;70394;45.194;9.142;2023-06-14T01:47:41;100098.25;;;21.51;70.09
79131;BME280;70394;45.194;9.142;2023-06-14T01:50:07;100091.88;;;21.52;70.49
79131;BME280;70394;45.194;9.142;2023-06-14T01:52:33;100085.25;;;21.56;70.01
79131;BME280;70394;45.194;9.142;2023-06-14T01:54:58;100076.50;;;21.54;70.43
79131;BME280;70394;45.194;9.142;2023-06-14T01:57:27;100073.13;;;21.52;70.80
79131;BME280;70394;45.194;9.142;2023-06-14T01:59:53;100078.06;;;21.57;70.89
79131;BME280;70394;45.194;9.142;2023-06-14T02:02:18;100067.88;;;21.51;71.09
79131;BME280;70394;45.194;9.142;2023-06-14T02:04:43;100072.13;;;21.53;71.08
79131;BME280;70394;45.194;9.142;2023-06-14T02:07:09;100080.84;;;21.46;71.62
79131;BME280;70394;45.194;9.142;2023-06-14T02:09:35;100082.97;;;21.42;71.53
79131;BME280;70394;45.194;9.142;2023-06-14T02:12:01;100086.34;;;21.44;71.82
79131;BME280;70394;45.194;9.142;2023-06-14T02:14:26;100093.56;;;21.43;71.89
79131;BME280;70394;45.194;9.142;2023-06-14T02:16:52;100087.75;;;21.38;71.82
79131;BME280;70394;45.194;9.142;2023-06-14T02:19:19;100089.19;;;21.42;71.76
79131;BME280;70394;45.194;9.142;2023-06-14T02:21:46;100098.47;;;21.38;71.50
79131;BME280;70394;45.194;9.142;2023-06-14T02:24:11;100096.66;;;21.39;71.41
79131;BME280;70394;45.194;9.142;2023-06-14T02:26:37;100099.63;;;21.46;71.04
79131;BME280;70394;45.194;9.142;2023-06-14T02:29:08;100098.78;;;21.45;71.10
79131;BME280;70394;45.194;9.142;2023-06-14T02:31:36;100083.38;;;21.37;70.94
79131;BME280;70394;45.194;9.142;2023-06-14T02:34:01;100079.16;;;21.35;70.95
79131;BME280;70394;45.194;9.142;2023-06-14T02:36:27;100084.22;;;21.38;70.69
79131;BME280;70394;45.194;9.142;2023-06-14T02:38:54;100087.91;;;21.37;70.56
79131;BME280;70394;45.194;9.142;2023-06-14T02:41:22;100083.94;;;21.31;70.59
79131;BME280;70394;45.194;9.142;2023-06-14T02:43:48;100086.03;;;21.27;70.70
79131;BME280;70394;45.194;9.142;2023-06-14T02:46:13;100081.94;;;21.23;71.02
79131;BME280;70394;45.194;9.142;2023-06-14T02:48:38;100080.38;;;21.30;70.99
79131;BME280;70394;45.194;9.142;2023-06-14T02:51:05;100077.69;;;21.30;70.31
79131;BME280;70394;45.194;9.142;2023-06-14T02:53:31;100092.38;;;21.26;70.36
79131;BME280;70394;45.194;9.142;2023-06-14T02:55:57;100090.91;;;21.12;70.38
79131;BME280;70394;45.194;9.142;2023-06-14T02:58:23;100081.88;;;21.13;70.29
79131;BME280;70394;45.194;9.142;2023-06-14T03:00:50;100084.13;;;21.08;69.73
79131;BME280;70394;45.194;9.142;2023-06-14T03:03:17;100091.75;;;21.13;69.58
79131;BME280;70394;45.194;9.142;2023-06-14T03:05:45;100080.97;;;20.93;69.69
79131;BME280;70394;45.194;9.142;2023-06-14T03:08:13;100076.63;;;21.02;69.06
79131;BME280;70394;45.194;9.142;2023-06-14T03:10:48;100082.69;;;21.04;68.67
79131;BME280;70394;45.194;9.142;2023-06-14T03:13:14;100084.81;;;21.00;68.73
79131;BME280;70394;45.194;9.142;2023-06-14T03:15:41;100082.13;;;21.00;68.39
79131;BME280;70394;45.194;9.142;2023-06-14T03:18:10;100094.28;;;21.05;67.94
79131;BME280;70394;45.194;9.142;2023-06-14T03:20:37;100092.00;;;21.00;67.73
79131;BME280;70394;45.194;9.142;2023-06-14T03:23:02;100096.09;;;21.04;67.46
79131;BME280;70394;45.194;9.142;2023-06-14T03:25:28;100100.91;;;21.00;67.31
79131;BME280;70394;45.194;9.142;2023-06-14T03:27:57;100090.28;;;20.99;66.98
79131;BME280;70394;45.194;9.142;2023-06-14T03:30:23;100085.66;;;21.01;67.05
79131;BME280;70394;45.194;9.142;2023-06-14T03:32:48;100095.25;;;21.04;66.98
79131;BME280;70394;45.194;9.142;2023-06-14T03:35:14;100077.16;;;20.96;66.81
79131;BME280;70394;45.194;9.142;2023-06-14T03:37:46;100076.97;;;20.87;67.15
79131;BME280;70394;45.194;9.142;2023-06-14T03:40:12;100085.22;;;20.96;67.33
79131;BME280;70394;45.194;9.142;2023-06-14T03:42:38;100081.22;;;20.90;67.31
79131;BME280;70394;45.194;9.142;2023-06-14T03:45:04;100094.81;;;20.98;67.96
79131;BME280;70394;45.194;9.142;2023-06-14T03:47:30;100084.94;;;20.99;67.91
79131;BME280;70394;45.194;9.142;2023-06-14T03:49:56;100086.63;;;21.00;67.66
79131;BME280;70394;45.194;9.142;2023-06-14T03:52:21;100088.31;;;21.01;68.04
79131;BME280;70394;45.194;9.142;2023-06-14T03:54:48;100081.09;;;20.92;67.99
79131;BME280;70394;45.194;9.142;2023-06-14T03:57:14;100086.78;;;20.98;68.03
79131;BME280;70394;45.194;9.142;2023-06-14T03:59:39;100088.47;;;20.99;68.18
79131;BME280;70394;45.194;9.142;2023-06-14T04:02:04;100073.63;;;20.95;68.20
79131;BME280;70394;45.194;9.142;2023-06-14T04:04:30;100089.47;;;20.98;68.55
79131;BME280;70394;45.194;9.142;2023-06-14T04:06:56;100086.03;;;20.96;68.49
79131;BME280;70394;45.194;9.142;2023-06-14T04:09:24;100081.81;;;20.94;68.29
79131;BME280;70394;45.194;9.142;2023-06-14T04:11:51;100080.13;;;20.93;68.49
79131;BME280;70394;45.194;9.142;2023-06-14T04:14:18;100088.16;;;20.93;68.28
79131;BME280;70394;45.194;9.142;2023-06-14T04:16:44;100082.75;;;20.83;68.74
79131;BME280;70394;45.194;9.142;2023-06-14T04:19:09;100090.53;;;20.86;68.62
79131;BME280;70394;45.194;9.142;2023-06-14T04:21:34;100089.94;;;20.82;68.78
79131;BME280;70394;45.194;9.142;2023-06-14T04:24:00;100091.63;;;20.83;68.86
79131;BME280;70394;45.194;9.142;2023-06-14T04:26:27;100090.06;;;20.81;69.13
79131;BME280;70394;45.194;9.142;2023-06-14T04:29:01;100088.84;;;20.85;68.94
79131;BME280;70394;45.194;9.142;2023-06-14T04:31:28;100085.88;;;20.88;68.93
79131;BME280;70394;45.194;9.142;2023-06-14T04:33:55;100080.28;;;20.80;68.86
79131;BME280;70394;45.194;9.142;2023-06-14T04:36:21;100089.81;;;20.84;69.29
79131;BME280;70394;45.194;9.142;2023-06-14T04:38:47;100090.53;;;20.86;68.84
79131;BME280;70394;45.194;9.142;2023-06-14T04:41:14;100097.84;;;20.84;69.05
79131;BME280;70394;45.194;9.142;2023-06-14T04:43:41;100092.72;;;20.81;68.64
79131;BME280;70394;45.194;9.142;2023-06-14T04:46:08;100094.47;;;20.82;68.97
79131;BME280;70394;45.194;9.142;2023-06-14T04:48:39;100096.16;;;20.83;68.36
79131;BME280;70394;45.194;9.142;2023-06-14T04:51:07;100096.16;;;20.83;68.50
79131;BME280;70394;45.194;9.142;2023-06-14T04:53:32;100098.28;;;20.89;68.57
79131;BME280;70394;45.194;9.142;2023-06-14T04:55:57;100077.16;;;20.75;68.60
79131;BME280;70394;45.194;9.142;2023-06-14T04:58:23;100106.59;;;20.86;68.41
79131;BME280;70394;45.194;9.142;2023-06-14T05:00:49;100101.25;;;20.86;68.32
79131;BME280;70394;45.194;9.142;2023-06-14T05:03:14;100097.84;;;20.84;68.44
79131;BME280;70394;45.194;9.142;2023-06-14T05:05:40;100104.19;;;20.83;68.62
79131;BME280;70394;45.194;9.142;2023-06-14T05:08:06;100073.06;;;20.70;68.64
79131;BME280;70394;45.194;9.142;2023-06-14T05:10:32;100108.88;;;20.91;68.56
79131;BME280;70394;45.194;9.142;2023-06-14T05:13:00;100103.63;;;20.68;68.49
79131;BME280;70394;45.194;9.142;2023-06-14T05:15:25;100123.94;;;20.82;68.60
79131;BME280;70394;45.194;9.142;2023-06-14T05:17:51;100111.28;;;20.72;68.69
79131;BME280;70394;45.194;9.142;2023-06-14T05:20:21;100120.75;;;20.77;68.35
79131;BME280;70394;45.194;9.142;2023-06-14T05:22:48;100113.34;;;20.80;68.34
79131;BME280;70394;45.194;9.142;2023-06-14T05:25:15;100123.41;;;20.88;68.42
79131;BME280;70394;45.194;9.142;2023-06-14T05:27:40;100129.47;;;20.90;68.80
79131;BME280;70394;45.194;9.142;2023-06-14T05:30:07;100137.81;;;20.76;68.94
79131;BME280;70394;45.194;9.142;2023-06-14T05:32:33;100123.59;;;20.75;68.91
79131;BME280;70394;45.194;9.142;2023-06-14T05:34:59;100126.91;;;20.89;68.79
79131;BME280;70394;45.194;9.142;2023-06-14T05:37:24;100137.13;;;20.95;68.39
79131;BME280;70394;45.194;9.142;2023-06-14T05:39:50;100135.94;;;20.87;68.33
79131;BME280;70394;45.194;9.142;2023-06-14T05:42:15;100140.72;;;20.84;68.79
79131;BME280;70394;45.194;9.142;2023-06-14T05:44:40;100139.75;;;20.85;68.85
79131;BME280;70394;45.194;9.142;2023-06-14T05:47:06;100148.66;;;20.95;68.60
79131;BME280;70394;45.194;9.142;2023-06-14T05:49:31;100153.19;;;20.95;68.32
79131;BME280;70394;45.194;9.142;2023-06-14T05:51:57;100155.16;;;20.93;67.86
79131;BME280;70394;45.194;9.142;2023-06-14T05:54:22;100147.41;;;20.90;68.03
79131;BME280;70394;45.194;9.142;2023-06-14T05:56:47;100154.44;;;20.91;67.74
79131;BME280;70394;45.194;9.142;2023-06-14T05:59:13;100155.66;;;20.86;68.16
79131;BME280;70394;45.194;9.142;2023-06-14T06:01:38;100162.06;;;20.95;67.90
79131;BME280;70394;45.194;9.142;2023-06-14T06:04:05;100162.94;;;20.96;67.44
79131;BME280;70394;45.194;9.142;2023-06-14T06:06:31;100163.66;;;20.98;67.12
79131;BME280;70394;45.194;9.142;2023-06-14T06:08:57;100167.44;;;20.95;67.11
79131;BME280;70394;45.194;9.142;2023-06-14T06:11:23;100137.63;;;20.67;67.14
79131;BME280;70394;45.194;9.142;2023-06-14T06:13:49;100168.25;;;20.86;67.08
79131;BME280;70394;45.194;9.142;2023-06-14T06:16:14;100158.91;;;20.69;67.12
79131;BME280;70394;45.194;9.142;2023-06-14T06:18:40;100159.25;;;20.76;66.67
79131;BME280;70394;45.194;9.142;2023-06-14T06:21:05;100158.25;;;20.77;67.18
79131;BME280;70394;45.194;9.142;2023-06-14T06:23:31;100167.53;;;20.84;67.31
79131;BME280;70394;45.194;9.142;2023-06-14T06:25:57;100169.22;;;20.85;66.97
79131;BME280;70394;45.194;9.142;2023-06-14T06:28:22;100169.66;;;20.90;66.94
79131;BME280;70394;45.194;9.142;2023-06-14T06:30:48;100170.09;;;20.95;67.02
79131;BME280;70394;45.194;9.142;2023-06-14T06:33:13;100172.94;;;20.94;66.92
79131;BME280;70394;45.194;9.142;2023-06-14T06:35:39;100172.34;;;20.90;67.04
79131;BME280;70394;45.194;9.142;2023-06-14T06:38:05;100179.94;;;20.85;67.31
79131;BME280;70394;45.194;9.142;2023-06-14T06:40:30;100173.59;;;20.86;67.35
79131;BME280;70394;45.194;9.142;2023-06-14T06:42:55;100179.13;;;20.94;67.45
79131;BME280;70394;45.194;9.142;2023-06-14T06:45:21;100180.00;;;20.95;67.51
79131;BME280;70394;45.194;9.142;2023-06-14T06:47:48;100173.34;;;20.78;67.99
79131;BME280;70394;45.194;9.142;2023-06-14T06:50:14;100176.75;;;20.80;67.96
79131;BME280;70394;45.194;9.142;2023-06-14T06:52:39;100179.38;;;20.70;68.18
79131;BME280;70394;45.194;9.142;2023-06-14T06:55:05;100185.06;;;20.77;67.88
79131;BME280;70394;45.194;9.142;2023-06-14T06:57:31;100185.16;;;20.86;67.95
79131;BME280;70394;45.194;9.142;2023-06-14T06:59:57;100185.31;;;20.85;68.34
79131;BME280;70394;45.194;9.142;2023-06-14T07:02:22;100179.66;;;20.88;68.23
79131;BME280;70394;45.194;9.142;2023-06-14T07:04:47;100190.50;;;20.86;68.70
79131;BME280;70394;45.194;9.142;2023-06-14T07:07:13;100177.00;;;20.77;68.06
79131;BME280;70394;45.194;9.142;2023-06-14T07:09:38;100190.84;;;20.93;68.14
79131;BME280;70394;45.194;9.142;2023-06-14T07:12:04;100181.16;;;20.81;68.09
79131;BME280;70394;45.194;9.142;2023-06-14T07:14:30;100186.78;;;20.99;68.10
79131;BME280;70394;45.194;9.142;2023-06-14T07:16:55;100190.56;;;20.96;67.79
79131;BME280;70394;45.194;9.142;2023-06-14T07:19:21;100190.97;;;20.92;67.58
79131;BME280;70394;45.194;9.142;2023-06-14T07:21:46;100185.56;;;20.82;67.77
79131;BME280;70394;45.194;9.142;2023-06-14T07:24:12;100198.31;;;20.90;67.66
79131;BME280;70394;45.194;9.142;2023-06-14T07:26:37;100200.00;;;20.91;67.90
79131;BME280;70394;45.194;9.142;2023-06-14T07:29:03;100201.75;;;21.01;67.76
79131;BME280;70394;45.194;9.142;2023-06-14T07:31:28;100204.25;;;20.93;67.91
79131;BME280;70394;45.194;9.142;2023-06-14T07:33:54;100203.84;;;20.98;67.71
79131;BME280;70394;45.194;9.142;2023-06-14T07:36:19;100212.00;;;20.96;68.14
79131;BME280;70394;45.194;9.142;2023-06-14T07:38:45;100199.75;;;20.94;68.17
79131;BME280;70394;45.194;9.142;2023-06-14T07:41:11;100213.19;;;21.04;67.94
79131;BME280;70394;45.194;9.142;2023-06-14T07:43:36;100210.78;;;21.00;68.08
79131;BME280;70394;45.194;9.142;2023-06-14T07:46:02;100198.94;;;21.03;68.30
79131;BME280;70394;45.194;9.142;2023-06-14T07:48:27;100224.63;;;21.06;68.32
79131;BME280;70394;45.194;9.142;2023-06-14T07:50:53;100204.19;;;21.05;68.02
79131;BME280;70394;45.194;9.142;2023-06-14T07:53:18;100212.81;;;21.08;68.04
79131;BME280;70394;45.194;9.142;2023-06-14T07:55:43;100219.72;;;21.11;67.90
79131;BME280;70394;45.194;9.142;2023-06-14T07:58:09;100214.84;;;21.16;67.72
79131;BME280;70394;45.194;9.142;2023-06-14T08:00:36;100219.28;;;21.06;67.85
79131;BME280;70394;45.194;9.142;2023-06-14T08:03:01;100214.09;;;21.14;68.10
79131;BME280;70394;45.194;9.142;2023-06-14T08:05:27;100213.84;;;21.17;67.72
79131;BME280;70394;45.194;9.142;2023-06-14T08:07:53;100225.34;;;21.29;67.76
79131;BME280;70394;45.194;9.142;2023-06-14T08:10:19;100196.97;;;21.05;68.19
79131;BME280;70394;45.194;9.142;2023-06-14T08:12:45;100229.50;;;21.22;67.74
79131;BME280;70394;45.194;9.142;2023-06-14T08:15:10;100226.38;;;21.17;67.83
79131;BME280;70394;45.194;9.142;2023-06-14T08:17:36;100221.88;;;21.17;67.93
79131;BME280;70394;45.194;9.142;2023-06-14T08:20:02;100223.13;;;21.13;68.31
79131;BME280;70394;45.194;9.142;2023-06-14T08:22:29;100222.34;;;21.22;68.08
79131;BME280;70394;45.194;9.142;2023-06-14T08:24:57;100228.72;;;21.31;68.47
79131;BME280;70394;45.194;9.142;2023-06-14T08:27:23;100232.00;;;21.35;68.32
79131;BME280;70394;45.194;9.142;2023-06-14T08:29:48;100230.31;;;21.34;68.27
79131;BME280;70394;45.194;9.142;2023-06-14T08:32:13;100227.03;;;21.30;67.79
79131;BME280;70394;45.194;9.142;2023-06-14T08:34:39;100244.69;;;21.33;68.11
79131;BME280;70394;45.194;9.142;2023-06-14T08:37:04;100239.06;;;21.36;68.13
79131;BME280;70394;45.194;9.142;2023-06-14T08:39:30;100242.47;;;21.38;67.95
79131;BME280;70394;45.194;9.142;2023-06-14T08:41:56;100245.97;;;21.38;67.67
79131;BME280;70394;45.194;9.142;2023-06-14T08:44:22;100256.31;;;21.43;67.29
79131;BME280;70394;45.194;9.142;2023-06-14T08:46:48;100260.84;;;21.42;67.04
79131;BME280;70394;45.194;9.142;2023-06-14T08:49:16;100255.47;;;21.42;66.82
79131;BME280;70394;45.194;9.142;2023-06-14T08:51:42;100262.38;;;21.45;67.09
79131;BME280;70394;45.194;9.142;2023-06-14T08:54:10;100250.81;;;21.44;66.69
79131;BME280;70394;45.194;9.142;2023-06-14T08:56:38;100249.69;;;21.47;66.67
79131;BME280;70394;45.194;9.142;2023-06-14T08:59:03;100261.59;;;21.54;66.67
79131;BME280;70394;45.194;9.142;2023-06-14T09:01:33;100266.91;;;21.44;66.40
79131;BME280;70394;45.194;9.142;2023-06-14T09:03:59;100264.50;;;21.41;66.70
79131;BME280;70394;45.194;9.142;2023-06-14T09:06:25;100262.84;;;21.50;66.54
79131;BME280;70394;45.194;9.142;2023-06-14T09:08:50;100265.78;;;21.47;66.74
79131;BME280;70394;45.194;9.142;2023-06-14T09:11:19;100264.09;;;21.46;66.70
79131;BME280;70394;45.194;9.142;2023-06-14T09:13:48;100261.16;;;21.49;66.60
79131;BME280;70394;45.194;9.142;2023-06-14T09:16:14;100273.31;;;21.53;67.16
79131;BME280;70394;45.194;9.142;2023-06-14T09:18:45;100266.56;;;21.59;66.85
79131;BME280;70394;45.194;9.142;2023-06-14T09:21:13;100263.63;;;21.62;66.54
79131;BME280;70394;45.194;9.142;2023-06-14T09:23:41;100271.31;;;21.67;66.74
79131;BME280;70394;45.194;9.142;2023-06-14T09:26:10;100260.56;;;21.67;66.54
79131;BME280;70394;45.194;9.142;2023-06-14T09:28:44;100263.97;;;21.69;66.91
79131;BME280;70394;45.194;9.142;2023-06-14T09:31:11;100261.56;;;21.66;66.62
79131;BME280;70394;45.194;9.142;2023-06-14T09:33:37;100275.28;;;21.73;67.20
79131;BME280;70394;45.194;9.142;2023-06-14T09:36:03;100262.97;;;21.70;66.94
79131;BME280;70394;45.194;9.142;2023-06-14T09:38:29;100275.00;;;21.76;66.60
79131;BME280;70394;45.194;9.142;2023-06-14T09:40:57;100273.00;;;21.68;66.79
79131;BME280;70394;45.194;9.142;2023-06-14T09:43:23;100267.09;;;21.74;66.61
79131;BME280;70394;45.194;9.142;2023-06-14T09:45:50;100259.75;;;21.76;66.68
79131;BME280;70394;45.194;9.142;2023-06-14T09:48:16;100276.16;;;21.83;66.57
79131;BME280;70394;45.194;9.142;2023-06-14T09:50:46;100272.75;;;21.81;66.17
79131;BME280;70394;45.194;9.142;2023-06-14T09:53:14;100273.06;;;21.88;65.92
79131;BME280;70394;45.194;9.142;2023-06-14T09:55:42;100272.50;;;21.94;66.08
79131;BME280;70394;45.194;9.142;2023-06-14T09:58:10;100272.25;;;21.97;66.27
79131;BME280;70394;45.194;9.142;2023-06-14T10:00:39;100272.25;;;21.97;65.85
79131;BME280;70394;45.194;9.142;2023-06-14T10:03:13;100259.53;;;21.89;65.95
79131;BME280;70394;45.194;9.142;2023-06-14T10:05:42;100271.00;;;22.01;65.74
79131;BME280;70394;45.194;9.142;2023-06-14T10:08:09;100266.94;;;22.07;66.01
79131;BME280;70394;45.194;9.142;2023-06-14T10:10:35;100267.47;;;22.10;65.99
79131;BME280;70394;45.194;9.142;2023-06-14T10:13:03;100264.25;;;22.17;65.81
79131;BME280;70394;45.194;9.142;2023-06-14T10:15:32;100262.28;;;22.19;65.62
79131;BME280;70394;45.194;9.142;2023-06-14T10:18:01;100266.09;;;22.26;65.98
79131;BME280;70394;45.194;9.142;2023-06-14T10:20:55;100251.13;;;22.23;65.81
79131;BME280;70394;45.194;9.142;2023-06-14T10:23:25;100254.81;;;22.22;65.98
79131;BME280;70394;45.194;9.142;2023-06-14T10:25:56;100248.56;;;22.22;65.92
79131;BME280;70394;45.194;9.142;2023-06-14T10:28:22;100261.59;;;22.36;65.79
79131;BME280;70394;45.194;9.142;2023-06-14T10:31:11;100255.38;;;22.36;65.86
79131;BME280;70394;45.194;9.142;2023-06-14T10:33:49;100252.28;;;22.40;65.78
79131;BME280;70394;45.194;9.142;2023-06-14T10:39:14;100252.00;;;22.43;65.52
79131;BME280;70394;45.194;9.142;2023-06-14T10:41:41;100245.91;;;22.41;64.95
79131;BME280;70394;45.194;9.142;2023-06-14T10:46:38;100244.41;;;22.49;64.91
79131;BME280;70394;45.194;9.142;2023-06-14T10:49:04;100248.50;;;22.53;64.86
79131;BME280;70394;45.194;9.142;2023-06-14T10:51:38;100236.06;;;22.62;65.01
79131;BME280;70394;45.194;9.142;2023-06-14T10:54:12;100238.34;;;22.66;64.50
79131;BME280;70394;45.194;9.142;2023-06-14T10:56:48;100235.91;;;22.63;64.47
79131;BME280;70394;45.194;9.142;2023-06-14T10:59:14;100234.38;;;22.70;64.42
79131;BME280;70394;45.194;9.142;2023-06-14T11:04:52;100233.38;;;22.71;64.56
79131;BME280;70394;45.194;9.142;2023-06-14T11:12:39;100215.81;;;22.77;63.90
79131;BME280;70394;45.194;9.142;2023-06-14T11:15:05;100237.59;;;22.84;63.79
79131;BME280;70394;45.194;9.142;2023-06-14T11:17:32;100233.78;;;22.87;63.96
79131;BME280;70394;45.194;9.142;2023-06-14T11:20:10;100234.91;;;22.84;63.59
79131;BME280;70394;45.194;9.142;2023-06-14T11:22:41;100223.47;;;22.82;63.51
79131;BME280;70394;45.194;9.142;2023-06-14T11:25:13;100231.34;;;22.93;63.42
79131;BME280;70394;45.194;9.142;2023-06-14T11:27:38;100223.59;;;22.90;63.71
79131;BME280;70394;45.194;9.142;2023-06-14T11:30:07;100215.38;;;22.92;63.27
79131;BME280;70394;45.194;9.142;2023-06-14T11:32:33;100220.19;;;22.98;63.00
79131;BME280;70394;45.194;9.142;2023-06-14T11:34:58;100220.03;;;22.99;62.63
79131;BME280;70394;45.194;9.142;2023-06-14T11:37:25;100215.78;;;23.07;62.42
79131;BME280;70394;45.194;9.142;2023-06-14T11:39:56;100216.75;;;23.16;62.60
79131;BME280;70394;45.194;9.142;2023-06-14T11:42:22;100227.75;;;23.22;62.79
79131;BME280;70394;45.194;9.142;2023-06-14T11:44:49;100217.72;;;23.14;61.45
79131;BME280;70394;45.194;9.142;2023-06-14T11:47:15;100208.13;;;23.02;61.25
79131;BME280;70394;45.194;9.142;2023-06-14T11:49:40;100205.72;;;23.09;61.58
79131;BME280;70394;45.194;9.142;2023-06-14T11:52:07;100204.41;;;23.13;61.14
79131;BME280;70394;45.194;9.142;2023-06-14T11:54:32;100217.06;;;23.03;61.21
79131;BME280;70394;45.194;9.142;2023-06-14T11:56:58;100198.34;;;23.11;61.68
79131;BME280;70394;45.194;9.142;2023-06-14T11:59:24;100209.97;;;23.11;59.47
79131;BME280;70394;45.194;9.142;2023-06-14T12:01:50;100191.72;;;23.05;60.31
79131;BME280;70394;45.194;9.142;2023-06-14T12:04:28;100216.59;;;23.27;60.44
79131;BME280;70394;45.194;9.142;2023-06-14T12:06:54;100205.69;;;23.28;60.42
79131;BME280;70394;45.194;9.142;2023-06-14T12:09:21;100193.78;;;23.21;59.78
79131;BME280;70394;45.194;9.142;2023-06-14T12:11:49;100200.47;;;23.27;59.92
79131;BME280;70394;45.194;9.142;2023-06-14T12:14:15;100189.41;;;23.30;60.13
79131;BME280;70394;45.194;9.142;2023-06-14T12:16:42;100180.91;;;23.35;60.46
79131;BME280;70394;45.194;9.142;2023-06-14T12:19:12;100196.84;;;23.46;60.12
79131;BME280;70394;45.194;9.142;2023-06-14T12:21:38;100183.72;;;23.33;60.11
79131;BME280;70394;45.194;9.142;2023-06-14T12:24:08;100188.81;;;23.36;58.55
79131;BME280;70394;45.194;9.142;2023-06-14T12:26:37;100187.41;;;23.32;59.27
79131;BME280;70394;45.194;9.142;2023-06-14T12:29:05;100169.88;;;23.18;58.71
79131;BME280;70394;45.194;9.142;2023-06-14T12:31:31;100191.81;;;23.33;58.69
79131;BME280;70394;45.194;9.142;2023-06-14T12:33:56;100180.22;;;23.23;57.96
79131;BME280;70394;45.194;9.142;2023-06-14T12:36:21;100181.34;;;23.30;58.25
79131;BME280;70394;45.194;9.142;2023-06-14T12:38:47;100180.31;;;23.41;58.54
79131;BME280;70394;45.194;9.142;2023-06-14T12:41:13;100183.63;;;23.53;58.56
79131;BME280;70394;45.194;9.142;2023-06-14T12:43:39;100167.22;;;23.56;58.67
79131;BME280;70394;45.194;9.142;2023-06-14T12:46:05;100169.56;;;23.69;58.51
79131;BME280;70394;45.194;9.142;2023-06-14T12:48:30;100175.31;;;23.74;58.44
79131;BME280;70394;45.194;9.142;2023-06-14T12:50:56;100176.72;;;23.78;58.33
79131;BME280;70394;45.194;9.142;2023-06-14T12:53:22;100173.75;;;23.81;58.25
79131;BME280;70394;45.194;9.142;2023-06-14T12:55:48;100167.19;;;23.84;58.02
79131;BME280;70394;45.194;9.142;2023-06-14T12:58:14;100174.13;;;23.87;57.79
79131;BME280;70394;45.194;9.142;2023-06-14T13:00:40;100169.72;;;23.86;58.02
79131;BME280;70394;45.194;9.142;2023-06-14T13:03:05;100163.22;;;23.88;57.90
79131;BME280;70394;45.194;9.142;2023-06-14T13:05:31;100161.34;;;23.89;58.13
79131;BME280;70394;45.194;9.142;2023-06-14T13:07:58;100162.34;;;23.88;57.48
79131;BME280;70394;45.194;9.142;2023-06-14T13:10:24;100164.34;;;23.86;57.75